sensor_id;sensor_type;location;lat;lon;timestamp;P1;durP1;ratioP1;P2;durP2;ratioP2
15482;SDS011;7843;50.330;7.312;2022-08-14T00:00:14;3.10;;;2.20;;
15482;SDS011;7843;50.330;7.312;2022-08-14T00:02:43;2.50;;;2.20;;
15482;SDS011;7843;50.330;7.312;2022-08-14T00:05:11;3.33;;;2.30;;
15482;SDS011;7843;50.330;7.312;2022-08-14T00:07:41;3.27;;;2.30;;
15482;SDS011;7843;50.330;7.312;2022-08-14T00:10:09;2.67;;;2.47;;
15482;SDS011;7843;50.330;7.312;2022-08-14T00:12:45;4.95;;;2.40;;
15482;SDS011;7843;50.330;7.312;2022-08-14T00:15:47;6.15;;;2.47;;
15482;SDS011;7843;50.330;7.312;2022-08-14T00:18:10;4.60;;;2.73;;
15482;SDS011;7843;50.330;7.312;2022-08-14T00:20:39;3.45;;;2.45;;
15482;SDS011;7843;50.330;7.312;2022-08-14T00:23:08;4.43;;;2.73;;
15482;SDS011;7843;50.330;7.312;2022-08-14T00:25:35;4.10;;;2.50;;
15482;SDS011;7843;50.330;7.312;2022-08-14T00:28:03;6.82;;;2.50;;
15482;SDS011;7843;50.330;7.312;2022-08-14T00:30:33;3.70;;;2.40;;
15482;SDS011;7843;50.330;7.312;2022-08-14T00:33:00;14.48;;;4.65;;
15482;SDS011;7843;50.330;7.312;2022-08-14T00:35:27;7.88;;;3.33;;
15482;SDS011;7843;50.330;7.312;2022-08-14T00:37:54;4.40;;;2.90;;
15482;SDS011;7843;50.330;7.312;2022-08-14T00:40:20;4.70;;;2.80;;
15482;SDS011;7843;50.330;7.312;2022-08-14T00:42:47;4.50;;;2.83;;
15482;SDS011;7843;50.330;7.312;2022-08-14T00:45:15;4.47;;;2.42;;
15482;SDS011;7843;50.330;7.312;2022-08-14T00:47:44;2.65;;;2.30;;
15482;SDS011;7843;50.330;7.312;2022-08-14T00:50:14;3.38;;;2.45;;
15482;SDS011;7843;50.330;7.312;2022-08-14T00:52:45;4.90;;;2.50;;
15482;SDS011;7843;50.330;7.312;2022-08-14T00:55:13;5.03;;;2.60;;
15482;SDS011;7843;50.330;7.312;2022-08-14T00:57:40;4.73;;;2.50;;
15482;SDS011;7843;50.330;7.312;2022-08-14T01:00:11;4.75;;;2.78;;
15482;SDS011;7843;50.330;7.312;2022-08-14T01:02:41;5.07;;;2.90;;
15482;SDS011;7843;50.330;7.312;2022-08-14T01:05:10;4.43;;;2.73;;
15482;SDS011;7843;50.330;7.312;2022-08-14T01:07:50;4.60;;;3.10;;
15482;SDS011;7843;50.330;7.312;2022-08-14T01:10:19;4.53;;;2.78;;
15482;SDS011;7843;50.330;7.312;2022-08-14T01:12:46;5.13;;;2.90;;
15482;SDS011;7843;50.330;7.312;2022-08-14T01:15:16;4.05;;;2.83;;
15482;SDS011;7843;50.330;7.312;2022-08-14T01:17:46;5.68;;;2.90;;
15482;SDS011;7843;50.330;7.312;2022-08-14T01:20:31;3.88;;;2.90;;
15482;SDS011;7843;50.330;7.312;2022-08-14T01:23:17;3.13;;;2.70;;
15482;SDS011;7843;50.330;7.312;2022-08-14T01:25:45;4.15;;;2.88;;
15482;SDS011;7843;50.330;7.312;2022-08-14T01:28:13;4.68;;;3.00;;
15482;SDS011;7843;50.330;7.312;2022-08-14T01:30:40;3.28;;;2.97;;
15482;SDS011;7843;50.330;7.312;2022-08-14T01:33:08;4.65;;;3.25;;
15482;SDS011;7843;50.330;7.312;2022-08-14T01:35:37;3.78;;;3.20;;
15482;SDS011;7843;50.330;7.312;2022-08-14T01:38:07;5.50;;;3.30;;
15482;SDS011;7843;50.330;7.312;2022-08-14T01:40:35;6.32;;;3.90;;
15482;SDS011;7843;50.330;7.312;2022-08-14T01:43:06;5.32;;;3.50;;
15482;SDS011;7843;50.330;7.312;2022-08-14T01:45:42;5.32;;;3.60;;
15482;SDS011;7843;50.330;7.312;2022-08-14T01:48:11;5.00;;;3.78;;
15482;SDS011;7843;50.330;7.312;2022-08-14T01:50:39;4.30;;;3.55;;
15482;SDS011;7843;50.330;7.312;2022-08-14T01:53:07;3.90;;;3.50;;
15482;SDS011;7843;50.330;7.312;2022-08-14T01:55:34;4.00;;;3.60;;
15482;SDS011;7843;50.330;7.312;2022-08-14T01:58:03;4.00;;;3.30;;
15482;SDS011;7843;50.330;7.312;2022-08-14T02:00:30;3.90;;;3.50;;
15482;SDS011;7843;50.330;7.312;2022-08-14T02:02:57;4.22;;;3.83;;
15482;SDS011;7843;50.330;7.312;2022-08-14T02:05:24;3.88;;;3.47;;
15482;SDS011;7843;50.330;7.312;2022-08-14T02:07:55;4.28;;;3.47;;
15482;SDS011;7843;50.330;7.312;2022-08-14T02:10:22;4.30;;;3.63;;
15482;SDS011;7843;50.330;7.312;2022-08-14T02:12:49;5.10;;;3.88;;
15482;SDS011;7843;50.330;7.312;2022-08-14T02:15:15;5.18;;;3.50;;
15482;SDS011;7843;50.330;7.312;2022-08-14T02:17:47;4.33;;;3.93;;
15482;SDS011;7843;50.330;7.312;2022-08-14T02:20:15;4.20;;;3.38;;
15482;SDS011;7843;50.330;7.312;2022-08-14T02:22:42;4.57;;;3.60;;
15482;SDS011;7843;50.330;7.312;2022-08-14T02:25:10;7.65;;;3.22;;
15482;SDS011;7843;50.330;7.312;2022-08-14T02:27:37;3.33;;;3.03;;
15482;SDS011;7843;50.330;7.312;2022-08-14T02:30:07;7.20;;;4.50;;
15482;SDS011;7843;50.330;7.312;2022-08-14T02:32:34;7.60;;;3.67;;
15482;SDS011;7843;50.330;7.312;2022-08-14T02:35:01;5.85;;;3.90;;
15482;SDS011;7843;50.330;7.312;2022-08-14T02:37:35;5.40;;;3.50;;
15482;SDS011;7843;50.330;7.312;2022-08-14T02:40:02;5.67;;;3.90;;
15482;SDS011;7843;50.330;7.312;2022-08-14T02:42:29;5.30;;;3.85;;
15482;SDS011;7843;50.330;7.312;2022-08-14T02:44:57;7.82;;;4.18;;
15482;SDS011;7843;50.330;7.312;2022-08-14T02:47:24;7.50;;;3.88;;
15482;SDS011;7843;50.330;7.312;2022-08-14T02:49:53;5.20;;;3.80;;
15482;SDS011;7843;50.330;7.312;2022-08-14T02:52:20;5.20;;;3.85;;
15482;SDS011;7843;50.330;7.312;2022-08-14T02:54:48;5.55;;;4.07;;
15482;SDS011;7843;50.330;7.312;2022-08-14T02:57:15;6.18;;;3.97;;
15482;SDS011;7843;50.330;7.312;2022-08-14T02:59:43;4.80;;;3.97;;
15482;SDS011;7843;50.330;7.312;2022-08-14T03:02:11;5.78;;;3.83;;
15482;SDS011;7843;50.330;7.312;2022-08-14T03:04:38;4.75;;;3.75;;
15482;SDS011;7843;50.330;7.312;2022-08-14T03:07:05;5.00;;;4.20;;
15482;SDS011;7843;50.330;7.312;2022-08-14T03:09:33;5.77;;;4.33;;
15482;SDS011;7843;50.330;7.312;2022-08-14T03:12:01;5.53;;;4.30;;
15482;SDS011;7843;50.330;7.312;2022-08-14T03:14:29;4.77;;;4.20;;
15482;SDS011;7843;50.330;7.312;2022-08-14T03:16:58;6.30;;;4.30;;
15482;SDS011;7843;50.330;7.312;2022-08-14T03:19:26;5.82;;;4.15;;
15482;SDS011;7843;50.330;7.312;2022-08-14T03:21:52;4.72;;;4.28;;
15482;SDS011;7843;50.330;7.312;2022-08-14T03:24:20;8.27;;;4.45;;
15482;SDS011;7843;50.330;7.312;2022-08-14T03:26:48;6.50;;;4.50;;
15482;SDS011;7843;50.330;7.312;2022-08-14T03:29:17;5.35;;;4.50;;
15482;SDS011;7843;50.330;7.312;2022-08-14T03:31:45;7.20;;;4.40;;
15482;SDS011;7843;50.330;7.312;2022-08-14T03:34:16;5.47;;;4.50;;
15482;SDS011;7843;50.330;7.312;2022-08-14T03:36:44;5.88;;;4.40;;
15482;SDS011;7843;50.330;7.312;2022-08-14T03:39:10;7.85;;;5.15;;
15482;SDS011;7843;50.330;7.312;2022-08-14T03:41:41;6.03;;;4.57;;
15482;SDS011;7843;50.330;7.312;2022-08-14T03:44:08;6.05;;;4.65;;
15482;SDS011;7843;50.330;7.312;2022-08-14T03:46:35;7.22;;;5.28;;
15482;SDS011;7843;50.330;7.312;2022-08-14T03:49:04;6.20;;;4.72;;
15482;SDS011;7843;50.330;7.312;2022-08-14T03:51:32;6.07;;;4.80;;
15482;SDS011;7843;50.330;7.312;2022-08-14T03:54:00;7.43;;;4.80;;
15482;SDS011;7843;50.330;7.312;2022-08-14T03:56:31;7.05;;;5.05;;
15482;SDS011;7843;50.330;7.312;2022-08-14T03:59:00;6.38;;;5.03;;
15482;SDS011;7843;50.330;7.312;2022-08-14T04:01:33;5.57;;;4.90;;
15482;SDS011;7843;50.330;7.312;2022-08-14T04:04:00;8.38;;;5.10;;
15482;SDS011;7843;50.330;7.312;2022-08-14T04:06:32;5.88;;;5.13;;
15482;SDS011;7843;50.330;7.312;2022-08-14T04:09:00;7.53;;;4.85;;
15482;SDS011;7843;50.330;7.312;2022-08-14T04:11:26;7.03;;;5.50;;
15482;SDS011;7843;50.330;7.312;2022-08-14T04:13:54;6.88;;;5.18;;
15482;SDS011;7843;50.330;7.312;2022-08-14T04:16:21;7.78;;;5.25;;
15482;SDS011;7843;50.330;7.312;2022-08-14T04:18:50;6.90;;;5.30;;
15482;SDS011;7843;50.330;7.312;2022-08-14T04:21:19;6.80;;;5.28;;
15482;SDS011;7843;50.330;7.312;2022-08-14T04:23:51;6.68;;;5.40;;
15482;SDS011;7843;50.330;7.312;2022-08-14T04:26:18;8.05;;;5.38;;
15482;SDS011;7843;50.330;7.312;2022-08-14T04:28:48;7.82;;;5.50;;
15482;SDS011;7843;50.330;7.312;2022-08-14T04:31:19;6.72;;;5.20;;
15482;SDS011;7843;50.330;7.312;2022-08-14T04:33:46;7.20;;;5.20;;
15482;SDS011;7843;50.330;7.312;2022-08-14T04:36:13;6.18;;;5.30;;
15482;SDS011;7843;50.330;7.312;2022-08-14T04:38:40;6.13;;;5.40;;
15482;SDS011;7843;50.330;7.312;2022-08-14T04:41:25;7.25;;;5.43;;
15482;SDS011;7843;50.330;7.312;2022-08-14T04:44:11;6.90;;;5.60;;
15482;SDS011;7843;50.330;7.312;2022-08-14T04:46:37;6.32;;;5.50;;
15482;SDS011;7843;50.330;7.312;2022-08-14T04:49:04;7.00;;;5.75;;
15482;SDS011;7843;50.330;7.312;2022-08-14T04:51:31;7.15;;;5.80;;
15482;SDS011;7843;50.330;7.312;2022-08-14T04:53:58;7.00;;;5.32;;
15482;SDS011;7843;50.330;7.312;2022-08-14T04:56:26;6.50;;;5.80;;
15482;SDS011;7843;50.330;7.312;2022-08-14T04:58:54;5.88;;;5.25;;
15482;SDS011;7843;50.330;7.312;2022-08-14T05:01:25;6.80;;;5.72;;
15482;SDS011;7843;50.330;7.312;2022-08-14T05:03:52;7.60;;;5.63;;
15482;SDS011;7843;50.330;7.312;2022-08-14T05:06:20;6.07;;;5.47;;
15482;SDS011;7843;50.330;7.312;2022-08-14T05:08:47;6.70;;;5.57;;
15482;SDS011;7843;50.330;7.312;2022-08-14T05:11:13;8.23;;;6.15;;
15482;SDS011;7843;50.330;7.312;2022-08-14T05:13:41;7.78;;;5.85;;
15482;SDS011;7843;50.330;7.312;2022-08-14T05:16:29;8.48;;;5.75;;
15482;SDS011;7843;50.330;7.312;2022-08-14T05:18:56;7.47;;;5.90;;
15482;SDS011;7843;50.330;7.312;2022-08-14T05:21:23;7.85;;;6.20;;
15482;SDS011;7843;50.330;7.312;2022-08-14T05:23:50;7.78;;;6.18;;
15482;SDS011;7843;50.330;7.312;2022-08-14T05:26:17;8.70;;;6.07;;
15482;SDS011;7843;50.330;7.312;2022-08-14T05:28:45;7.03;;;5.90;;
15482;SDS011;7843;50.330;7.312;2022-08-14T05:31:12;6.33;;;5.70;;
15482;SDS011;7843;50.330;7.312;2022-08-14T05:33:42;9.45;;;5.43;;
15482;SDS011;7843;50.330;7.312;2022-08-14T05:36:10;6.57;;;5.60;;
15482;SDS011;7843;50.330;7.312;2022-08-14T05:38:39;6.60;;;5.17;;
15482;SDS011;7843;50.330;7.312;2022-08-14T05:41:09;6.30;;;5.22;;
15482;SDS011;7843;50.330;7.312;2022-08-14T05:43:40;7.22;;;4.78;;
15482;SDS011;7843;50.330;7.312;2022-08-14T05:46:13;6.53;;;5.00;;
15482;SDS011;7843;50.330;7.312;2022-08-14T05:48:40;5.90;;;5.03;;
15482;SDS011;7843;50.330;7.312;2022-08-14T05:51:07;6.13;;;4.95;;
15482;SDS011;7843;50.330;7.312;2022-08-14T05:53:34;7.55;;;5.68;;
15482;SDS011;7843;50.330;7.312;2022-08-14T05:56:03;5.53;;;4.88;;
15482;SDS011;7843;50.330;7.312;2022-08-14T05:58:30;6.30;;;5.00;;
15482;SDS011;7843;50.330;7.312;2022-08-14T06:00:56;6.03;;;5.20;;
15482;SDS011;7843;50.330;7.312;2022-08-14T06:03:23;7.38;;;5.32;;
15482;SDS011;7843;50.330;7.312;2022-08-14T06:05:51;6.22;;;5.13;;
15482;SDS011;7843;50.330;7.312;2022-08-14T06:08:20;5.95;;;5.35;;
15482;SDS011;7843;50.330;7.312;2022-08-14T06:10:49;5.97;;;4.93;;
15482;SDS011;7843;50.330;7.312;2022-08-14T06:13:18;5.88;;;5.20;;
15482;SDS011;7843;50.330;7.312;2022-08-14T06:15:45;5.97;;;5.10;;
15482;SDS011;7843;50.330;7.312;2022-08-14T06:18:14;6.10;;;5.35;;
15482;SDS011;7843;50.330;7.312;2022-08-14T06:20:41;5.60;;;5.00;;
15482;SDS011;7843;50.330;7.312;2022-08-14T06:23:08;6.00;;;5.40;;
15482;SDS011;7843;50.330;7.312;2022-08-14T06:25:35;6.65;;;5.20;;
15482;SDS011;7843;50.330;7.312;2022-08-14T06:28:02;6.00;;;5.40;;
15482;SDS011;7843;50.330;7.312;2022-08-14T06:30:32;6.47;;;5.77;;
15482;SDS011;7843;50.330;7.312;2022-08-14T06:33:00;6.30;;;5.53;;
15482;SDS011;7843;50.330;7.312;2022-08-14T06:35:28;7.47;;;5.57;;
15482;SDS011;7843;50.330;7.312;2022-08-14T06:37:56;6.38;;;5.35;;
15482;SDS011;7843;50.330;7.312;2022-08-14T06:40:26;7.70;;;5.65;;
15482;SDS011;7843;50.330;7.312;2022-08-14T06:42:55;6.18;;;5.43;;
15482;SDS011;7843;50.330;7.312;2022-08-14T06:45:23;6.77;;;5.60;;
15482;SDS011;7843;50.330;7.312;2022-08-14T06:47:51;6.15;;;5.63;;
15482;SDS011;7843;50.330;7.312;2022-08-14T06:50:19;6.72;;;5.30;;
15482;SDS011;7843;50.330;7.312;2022-08-14T06:52:48;7.20;;;5.60;;
15482;SDS011;7843;50.330;7.312;2022-08-14T06:55:15;5.88;;;5.38;;
15482;SDS011;7843;50.330;7.312;2022-08-14T06:57:48;6.28;;;5.68;;
15482;SDS011;7843;50.330;7.312;2022-08-14T07:00:22;5.90;;;5.38;;
15482;SDS011;7843;50.330;7.312;2022-08-14T07:02:50;6.45;;;5.85;;
15482;SDS011;7843;50.330;7.312;2022-08-14T07:05:36;6.00;;;5.47;;
15482;SDS011;7843;50.330;7.312;2022-08-14T07:08:16;6.40;;;5.60;;
15482;SDS011;7843;50.330;7.312;2022-08-14T07:10:55;6.18;;;5.38;;
15482;SDS011;7843;50.330;7.312;2022-08-14T07:13:24;6.53;;;5.28;;
15482;SDS011;7843;50.330;7.312;2022-08-14T07:15:53;5.88;;;5.28;;
15482;SDS011;7843;50.330;7.312;2022-08-14T07:18:23;8.27;;;5.78;;
15482;SDS011;7843;50.330;7.312;2022-08-14T07:20:54;6.05;;;5.45;;
15482;SDS011;7843;50.330;7.312;2022-08-14T07:23:22;6.05;;;5.53;;
15482;SDS011;7843;50.330;7.312;2022-08-14T07:25:51;6.93;;;5.80;;
15482;SDS011;7843;50.330;7.312;2022-08-14T07:28:20;6.32;;;5.70;;
15482;SDS011;7843;50.330;7.312;2022-08-14T07:30:53;5.97;;;5.38;;
15482;SDS011;7843;50.330;7.312;2022-08-14T07:33:24;6.70;;;5.43;;
15482;SDS011;7843;50.330;7.312;2022-08-14T07:35:52;6.07;;;5.47;;
15482;SDS011;7843;50.330;7.312;2022-08-14T07:38:20;6.20;;;5.60;;
15482;SDS011;7843;50.330;7.312;2022-08-14T07:40:49;6.55;;;5.95;;
15482;SDS011;7843;50.330;7.312;2022-08-14T07:43:16;6.25;;;5.68;;
15482;SDS011;7843;50.330;7.312;2022-08-14T07:45:43;6.55;;;5.95;;
15482;SDS011;7843;50.330;7.312;2022-08-14T07:48:10;7.15;;;5.78;;
15482;SDS011;7843;50.330;7.312;2022-08-14T07:50:37;6.53;;;5.85;;
15482;SDS011;7843;50.330;7.312;2022-08-14T07:53:04;5.95;;;5.20;;
15482;SDS011;7843;50.330;7.312;2022-08-14T07:55:34;6.95;;;6.05;;
15482;SDS011;7843;50.330;7.312;2022-08-14T07:58:01;6.30;;;5.70;;
15482;SDS011;7843;50.330;7.312;2022-08-14T08:00:28;6.15;;;5.55;;
15482;SDS011;7843;50.330;7.312;2022-08-14T08:02:57;6.65;;;6.05;;
15482;SDS011;7843;50.330;7.312;2022-08-14T08:05:24;7.25;;;5.57;;
15482;SDS011;7843;50.330;7.312;2022-08-14T08:07:52;6.13;;;5.53;;
15482;SDS011;7843;50.330;7.312;2022-08-14T08:10:20;6.63;;;5.70;;
15482;SDS011;7843;50.330;7.312;2022-08-14T08:12:59;6.22;;;5.63;;
15482;SDS011;7843;50.330;7.312;2022-08-14T08:15:32;6.18;;;5.57;;
15482;SDS011;7843;50.330;7.312;2022-08-14T08:18:04;6.65;;;6.00;;
15482;SDS011;7843;50.330;7.312;2022-08-14T08:20:32;7.15;;;5.70;;
15482;SDS011;7843;50.330;7.312;2022-08-14T08:23:02;5.93;;;5.32;;
15482;SDS011;7843;50.330;7.312;2022-08-14T08:25:31;7.10;;;5.20;;
15482;SDS011;7843;50.330;7.312;2022-08-14T08:30:29;6.30;;;5.32;;
15482;SDS011;7843;50.330;7.312;2022-08-14T08:32:57;5.82;;;5.22;;
15482;SDS011;7843;50.330;7.312;2022-08-14T08:35:31;5.90;;;5.40;;
15482;SDS011;7843;50.330;7.312;2022-08-14T08:38:02;6.60;;;5.90;;
15482;SDS011;7843;50.330;7.312;2022-08-14T08:40:35;7.55;;;5.63;;
15482;SDS011;7843;50.330;7.312;2022-08-14T08:43:06;7.53;;;5.40;;
15482;SDS011;7843;50.330;7.312;2022-08-14T08:45:34;5.13;;;4.68;;
15482;SDS011;7843;50.330;7.312;2022-08-14T08:48:02;6.10;;;5.15;;
15482;SDS011;7843;50.330;7.312;2022-08-14T08:50:34;5.85;;;5.35;;
15482;SDS011;7843;50.330;7.312;2022-08-14T08:53:03;5.18;;;4.70;;
15482;SDS011;7843;50.330;7.312;2022-08-14T08:55:36;5.70;;;5.07;;
15482;SDS011;7843;50.330;7.312;2022-08-14T08:58:08;5.40;;;4.90;;
15482;SDS011;7843;50.330;7.312;2022-08-14T09:00:37;5.53;;;5.03;;
15482;SDS011;7843;50.330;7.312;2022-08-14T09:03:10;4.97;;;4.50;;
15482;SDS011;7843;50.330;7.312;2022-08-14T09:05:47;5.22;;;4.72;;
15482;SDS011;7843;50.330;7.312;2022-08-14T09:08:27;4.80;;;4.40;;
15482;SDS011;7843;50.330;7.312;2022-08-14T09:11:02;4.97;;;4.57;;
15482;SDS011;7843;50.330;7.312;2022-08-14T09:13:30;5.13;;;4.57;;
15482;SDS011;7843;50.330;7.312;2022-08-14T09:15:57;7.17;;;4.60;;
15482;SDS011;7843;50.330;7.312;2022-08-14T09:18:27;5.83;;;4.50;;
15482;SDS011;7843;50.330;7.312;2022-08-14T09:20:55;5.32;;;4.30;;
15482;SDS011;7843;50.330;7.312;2022-08-14T09:23:22;4.88;;;4.47;;
15482;SDS011;7843;50.330;7.312;2022-08-14T09:25:49;5.25;;;4.60;;
15482;SDS011;7843;50.330;7.312;2022-08-14T09:28:17;6.95;;;4.20;;
15482;SDS011;7843;50.330;7.312;2022-08-14T09:30:49;7.43;;;4.10;;
15482;SDS011;7843;50.330;7.312;2022-08-14T09:44:43;4.50;;;4.10;;
15482;SDS011;7843;50.330;7.312;2022-08-14T09:47:38;5.82;;;4.10;;
15482;SDS011;7843;50.330;7.312;2022-08-14T09:50:59;6.10;;;4.68;;
15482;SDS011;7843;50.330;7.312;2022-08-14T09:53:11;4.90;;;4.47;;
15482;SDS011;7843;50.330;7.312;2022-08-14T09:55:43;4.43;;;4.03;;
15482;SDS011;7843;50.330;7.312;2022-08-14T10:03:23;4.63;;;4.10;;
15482;SDS011;7843;50.330;7.312;2022-08-14T10:06:02;4.50;;;4.10;;
15482;SDS011;7843;50.330;7.312;2022-08-14T10:08:41;5.75;;;4.05;;
15482;SDS011;7843;50.330;7.312;2022-08-14T10:11:12;3.30;;;3.00;;
15482;SDS011;7843;50.330;7.312;2022-08-14T10:13:48;3.50;;;3.20;;
15482;SDS011;7843;50.330;7.312;2022-08-14T10:16:20;3.65;;;3.20;;
15482;SDS011;7843;50.330;7.312;2022-08-14T10:19:06;4.00;;;3.10;;
15482;SDS011;7843;50.330;7.312;2022-08-14T10:21:35;6.15;;;3.50;;
15482;SDS011;7843;50.330;7.312;2022-08-14T10:24:04;3.40;;;3.10;;
15482;SDS011;7843;50.330;7.312;2022-08-14T10:26:34;4.22;;;3.20;;
15482;SDS011;7843;50.330;7.312;2022-08-14T10:29:06;4.45;;;3.25;;
15482;SDS011;7843;50.330;7.312;2022-08-14T10:31:36;4.32;;;3.17;;
15482;SDS011;7843;50.330;7.312;2022-08-14T10:34:10;3.40;;;3.10;;
15482;SDS011;7843;50.330;7.312;2022-08-14T10:36:40;3.63;;;3.33;;
15482;SDS011;7843;50.330;7.312;2022-08-14T10:39:21;3.17;;;2.90;;
15482;SDS011;7843;50.330;7.312;2022-08-14T10:42:01;3.22;;;2.97;;
15482;SDS011;7843;50.330;7.312;2022-08-14T10:44:35;4.18;;;3.20;;
15482;SDS011;7843;50.330;7.312;2022-08-14T10:47:04;3.20;;;2.58;;
15482;SDS011;7843;50.330;7.312;2022-08-14T10:49:35;2.95;;;2.60;;
15482;SDS011;7843;50.330;7.312;2022-08-14T10:52:05;2.85;;;2.45;;
15482;SDS011;7843;50.330;7.312;2022-08-14T10:54:41;2.90;;;2.60;;
15482;SDS011;7843;50.330;7.312;2022-08-14T10:59:48;3.70;;;2.83;;
15482;SDS011;7843;50.330;7.312;2022-08-14T11:07:28;3.25;;;2.95;;
15482;SDS011;7843;50.330;7.312;2022-08-14T11:09:56;3.28;;;2.88;;
15482;SDS011;7843;50.330;7.312;2022-08-14T11:12:25;3.07;;;2.87;;
15482;SDS011;7843;50.330;7.312;2022-08-14T11:15:03;3.22;;;2.92;;
15482;SDS011;7843;50.330;7.312;2022-08-14T11:17:30;3.23;;;2.93;;
15482;SDS011;7843;50.330;7.312;2022-08-14T11:19:58;3.33;;;2.73;;
15482;SDS011;7843;50.330;7.312;2022-08-14T11:22:26;3.77;;;2.60;;
15482;SDS011;7843;50.330;7.312;2022-08-14T11:25:00;3.17;;;2.80;;
15482;SDS011;7843;50.330;7.312;2022-08-14T11:27:30;2.95;;;2.70;;
15482;SDS011;7843;50.330;7.312;2022-08-14T11:30:00;3.97;;;2.58;;
15482;SDS011;7843;50.330;7.312;2022-08-14T11:32:31;3.60;;;2.72;;
15482;SDS011;7843;50.330;7.312;2022-08-14T11:34:58;4.60;;;2.70;;
15482;SDS011;7843;50.330;7.312;2022-08-14T11:37:28;2.90;;;2.60;;
15482;SDS011;7843;50.330;7.312;2022-08-14T11:39:56;3.20;;;2.73;;
15482;SDS011;7843;50.330;7.312;2022-08-14T11:42:23;3.33;;;3.03;;
15482;SDS011;7843;50.330;7.312;2022-08-14T11:44:52;4.00;;;2.70;;
15482;SDS011;7843;50.330;7.312;2022-08-14T11:47:22;3.70;;;2.40;;
15482;SDS011;7843;50.330;7.312;2022-08-14T11:49:49;2.60;;;2.40;;
15482;SDS011;7843;50.330;7.312;2022-08-14T11:52:17;3.13;;;2.80;;
15482;SDS011;7843;50.330;7.312;2022-08-14T11:54:44;3.40;;;2.50;;
15482;SDS011;7843;50.330;7.312;2022-08-14T11:57:22;3.58;;;2.50;;
15482;SDS011;7843;50.330;7.312;2022-08-14T11:59:58;2.92;;;2.58;;
15482;SDS011;7843;50.330;7.312;2022-08-14T12:02:26;2.95;;;2.75;;
15482;SDS011;7843;50.330;7.312;2022-08-14T12:04:53;2.72;;;2.50;;
15482;SDS011;7843;50.330;7.312;2022-08-14T12:07:19;2.95;;;2.70;;
15482;SDS011;7843;50.330;7.312;2022-08-14T12:09:46;2.72;;;2.53;;
15482;SDS011;7843;50.330;7.312;2022-08-14T12:12:19;4.28;;;2.60;;
15482;SDS011;7843;50.330;7.312;2022-08-14T12:14:49;2.70;;;2.47;;
15482;SDS011;7843;50.330;7.312;2022-08-14T12:17:26;3.95;;;2.40;;
15482;SDS011;7843;50.330;7.312;2022-08-14T12:19:56;3.58;;;2.50;;
15482;SDS011;7843;50.330;7.312;2022-08-14T12:25:06;3.42;;;2.63;;
15482;SDS011;7843;50.330;7.312;2022-08-14T12:27:45;3.35;;;3.05;;
15482;SDS011;7843;50.330;7.312;2022-08-14T12:30:34;2.75;;;2.55;;
15482;SDS011;7843;50.330;7.312;2022-08-14T12:33:22;3.20;;;2.90;;
15482;SDS011;7843;50.330;7.312;2022-08-14T12:35:51;3.80;;;3.03;;
15482;SDS011;7843;50.330;7.312;2022-08-14T12:41:17;3.63;;;2.97;;
15482;SDS011;7843;50.330;7.312;2022-08-14T12:48:49;3.20;;;2.90;;
15482;SDS011;7843;50.330;7.312;2022-08-14T12:51:17;3.42;;;3.05;;
15482;SDS011;7843;50.330;7.312;2022-08-14T12:53:46;3.42;;;2.83;;
15482;SDS011;7843;50.330;7.312;2022-08-14T12:56:16;3.63;;;2.90;;
15482;SDS011;7843;50.330;7.312;2022-08-14T12:58:48;2.90;;;2.40;;
15482;SDS011;7843;50.330;7.312;2022-08-14T13:01:19;4.25;;;2.25;;
15482;SDS011;7843;50.330;7.312;2022-08-14T13:04:05;2.47;;;2.03;;
15482;SDS011;7843;50.330;7.312;2022-08-14T13:06:39;6.45;;;2.30;;
15482;SDS011;7843;50.330;7.312;2022-08-14T13:09:09;3.45;;;2.22;;
15482;SDS011;7843;50.330;7.312;2022-08-14T13:11:40;3.03;;;2.30;;
15482;SDS011;7843;50.330;7.312;2022-08-14T13:14:11;3.38;;;2.00;;
15482;SDS011;7843;50.330;7.312;2022-08-14T13:16:40;3.50;;;2.10;;
15482;SDS011;7843;50.330;7.312;2022-08-14T13:19:12;2.53;;;2.00;;
15482;SDS011;7843;50.330;7.312;2022-08-14T13:21:45;2.43;;;1.70;;
15482;SDS011;7843;50.330;7.312;2022-08-14T13:24:14;2.58;;;1.83;;
15482;SDS011;7843;50.330;7.312;2022-08-14T13:29:15;2.17;;;1.80;;
15482;SDS011;7843;50.330;7.312;2022-08-14T13:31:44;3.30;;;1.88;;
15482;SDS011;7843;50.330;7.312;2022-08-14T13:34:14;3.50;;;1.88;;
15482;SDS011;7843;50.330;7.312;2022-08-14T13:36:41;3.35;;;2.10;;
15482;SDS011;7843;50.330;7.312;2022-08-14T13:39:09;4.70;;;2.28;;
15482;SDS011;7843;50.330;7.312;2022-08-14T13:41:36;2.80;;;2.50;;
15482;SDS011;7843;50.330;7.312;2022-08-14T13:44:03;2.33;;;2.13;;
15482;SDS011;7843;50.330;7.312;2022-08-14T13:46:30;3.13;;;2.65;;
15482;SDS011;7843;50.330;7.312;2022-08-14T13:48:58;2.60;;;2.22;;
15482;SDS011;7843;50.330;7.312;2022-08-14T13:51:24;2.97;;;2.30;;
15482;SDS011;7843;50.330;7.312;2022-08-14T13:53:57;2.72;;;2.15;;
15482;SDS011;7843;50.330;7.312;2022-08-14T13:56:38;2.05;;;1.92;;
15482;SDS011;7843;50.330;7.312;2022-08-14T13:59:06;2.50;;;2.20;;
15482;SDS011;7843;50.330;7.312;2022-08-14T14:01:34;4.22;;;2.10;;
15482;SDS011;7843;50.330;7.312;2022-08-14T14:04:03;6.07;;;1.70;;
15482;SDS011;7843;50.330;7.312;2022-08-14T14:06:32;2.43;;;1.83;;
15482;SDS011;7843;50.330;7.312;2022-08-14T14:08:59;1.90;;;1.52;;
15482;SDS011;7843;50.330;7.312;2022-08-14T14:11:28;3.70;;;1.75;;
15482;SDS011;7843;50.330;7.312;2022-08-14T14:13:56;2.40;;;1.63;;
15482;SDS011;7843;50.330;7.312;2022-08-14T14:16:25;2.17;;;1.67;;
15482;SDS011;7843;50.330;7.312;2022-08-14T14:18:54;4.43;;;1.58;;
15482;SDS011;7843;50.330;7.312;2022-08-14T14:21:22;2.70;;;1.95;;
15482;SDS011;7843;50.330;7.312;2022-08-14T14:23:52;2.90;;;2.03;;
15482;SDS011;7843;50.330;7.312;2022-08-14T14:26:21;2.17;;;1.88;;
15482;SDS011;7843;50.330;7.312;2022-08-14T14:28:50;2.63;;;2.05;;
15482;SDS011;7843;50.330;7.312;2022-08-14T14:31:21;3.35;;;2.20;;
15482;SDS011;7843;50.330;7.312;2022-08-14T14:33:51;2.53;;;2.20;;
15482;SDS011;7843;50.330;7.312;2022-08-14T14:36:22;4.57;;;2.85;;
15482;SDS011;7843;50.330;7.312;2022-08-14T14:38:52;2.50;;;2.30;;
15482;SDS011;7843;50.330;7.312;2022-08-14T14:41:20;4.22;;;2.00;;
15482;SDS011;7843;50.330;7.312;2022-08-14T14:43:49;3.95;;;1.90;;
15482;SDS011;7843;50.330;7.312;2022-08-14T14:46:18;2.22;;;2.03;;
15482;SDS011;7843;50.330;7.312;2022-08-14T14:48:46;5.18;;;2.40;;
15482;SDS011;7843;50.330;7.312;2022-08-14T14:51:14;2.40;;;2.20;;
15482;SDS011;7843;50.330;7.312;2022-08-14T14:53:42;2.80;;;2.20;;
15482;SDS011;7843;50.330;7.312;2022-08-14T14:56:11;3.83;;;2.45;;
15482;SDS011;7843;50.330;7.312;2022-08-14T14:58:41;3.15;;;2.03;;
15482;SDS011;7843;50.330;7.312;2022-08-14T15:01:08;2.35;;;2.13;;
15482;SDS011;7843;50.330;7.312;2022-08-14T15:03:36;4.60;;;2.10;;
15482;SDS011;7843;50.330;7.312;2022-08-14T15:06:04;3.35;;;2.10;;
15482;SDS011;7843;50.330;7.312;2022-08-14T15:08:31;3.03;;;2.30;;
15482;SDS011;7843;50.330;7.312;2022-08-14T15:10:58;3.28;;;2.30;;
15482;SDS011;7843;50.330;7.312;2022-08-14T15:13:26;3.60;;;2.33;;
15482;SDS011;7843;50.330;7.312;2022-08-14T15:15:55;2.70;;;2.10;;
15482;SDS011;7843;50.330;7.312;2022-08-14T15:18:22;3.23;;;2.43;;
15482;SDS011;7843;50.330;7.312;2022-08-14T15:20:51;2.58;;;2.35;;
15482;SDS011;7843;50.330;7.312;2022-08-14T15:23:28;2.85;;;2.30;;
15482;SDS011;7843;50.330;7.312;2022-08-14T15:25:55;3.00;;;2.30;;
15482;SDS011;7843;50.330;7.312;2022-08-14T15:28:23;3.80;;;2.47;;
15482;SDS011;7843;50.330;7.312;2022-08-14T15:30:51;3.40;;;2.70;;
15482;SDS011;7843;50.330;7.312;2022-08-14T15:33:19;6.05;;;2.80;;
15482;SDS011;7843;50.330;7.312;2022-08-14T15:36:05;5.95;;;2.55;;
15482;SDS011;7843;50.330;7.312;2022-08-14T15:38:32;2.30;;;2.10;;
15482;SDS011;7843;50.330;7.312;2022-08-14T15:41:03;3.35;;;2.10;;
15482;SDS011;7843;50.330;7.312;2022-08-14T15:43:31;2.70;;;2.30;;
15482;SDS011;7843;50.330;7.312;2022-08-14T15:46:02;2.30;;;2.10;;
15482;SDS011;7843;50.330;7.312;2022-08-14T15:48:31;2.47;;;2.20;;
15482;SDS011;7843;50.330;7.312;2022-08-14T15:50:59;3.40;;;2.10;;
15482;SDS011;7843;50.330;7.312;2022-08-14T15:53:27;2.90;;;2.33;;
15482;SDS011;7843;50.330;7.312;2022-08-14T15:55:55;3.35;;;2.15;;